Time;durP1;ratioP1;P1;durP2;ratioP2;P2;SDS_P1;SDS_P2;PMS_P1;PMS_P2;Temp;Humidity;BMP_temperature;BMP_pressure;BME280_temperature;BME280_humidity;BME280_pressure;Samples;Min_cycle;Max_cycle;Signal;HPM_P1;HPM_P2
2021/05/21 00:01:41;;;;;;;1.00;0.20;;;;;;;20.11;37.11;100849.78;144994;601;5002;-77
2021/05/21 00:04:08;;;;;;;0.50;0.20;;;;;;;20.07;37.37;100856.81;144994;655;5002;-78
2021/05/21 00:06:37;;;;;;;0.43;0.30;;;;;;;20.19;38.36;100861.13;144994;587;5002;-79
2021/05/21 00:09:05;;;;;;;1.37;0.20;;;;;;;20.17;38.19;100862.91;144994;631;5002;-79
2021/05/21 00:11:32;;;;;;;3.17;0.50;;;;;;;20.29;38.37;100857.53;144994;590;5002;-78
2021/05/21 00:13:58;;;;;;;0.95;0.30;;;;;;;20.34;38.42;100868.03;144994;665;5002;-77
2021/05/21 00:16:25;;;;;;;0.30;0.13;;;;;;;20.40;38.00;100867.97;144994;597;5002;-77
2021/05/21 00:18:53;;;;;;;1.85;0.30;;;;;;;20.42;38.05;100860.06;144994;577;5002;-78
2021/05/21 00:21:20;;;;;;;1.27;0.50;;;;;;;20.51;38.35;100870.53;144994;569;5002;-77
2021/05/21 00:23:48;;;;;;;0.95;0.30;;;;;;;20.35;37.13;100858.38;144994;583;5002;-77
2021/05/21 00:26:14;;;;;;;0.93;0.20;;;;;;;20.40;37.00;100861.84;144994;575;5002;-78
2021/05/21 00:28:41;;;;;;;1.27;0.30;;;;;;;20.22;37.04;100853.22;144994;564;5002;-77
2021/05/21 00:31:07;;;;;;;0.77;0.40;;;;;;;20.30;37.30;100858.41;144994;603;5002;-77
2021/05/21 00:33:34;;;;;;;1.60;0.32;;;;;;;20.17;36.26;100865.56;144994;593;5002;-78
2021/05/21 00:36:00;;;;;;;1.02;0.20;;;;;;;20.15;35.98;100867.31;144994;589;5002;-77
2021/05/21 00:38:27;;;;;;;0.65;0.30;;;;;;;19.85;35.69;100853.47;144994;637;5002;-77
2021/05/21 00:40:54;;;;;;;0.30;0.20;;;;;;;20.01;36.21;100858.62;144994;603;5002;-79
2021/05/21 00:43:20;;;;;;;1.12;0.32;;;;;;;19.85;35.89;100864.00;144994;577;5002;-77
2021/05/21 00:45:47;;;;;;;0.75;0.20;;;;;;;19.91;35.86;100868.34;144994;608;5002;-77
2021/05/21 00:48:13;;;;;;;0.62;0.30;;;;;;;19.89;35.68;100873.63;144994;563;5002;-77
2021/05/21 00:50:45;;;;;;;1.98;0.37;;;;;;;19.83;35.81;100868.41;144994;586;5002;-77
2021/05/21 00:53:13;;;;;;;1.70;0.32;;;;;;;19.81;35.62;100864.03;144994;585;5002;-77
2021/05/21 00:55:39;;;;;;;1.70;0.30;;;;;;;19.96;36.35;100870.97;144994;599;5002;-78
2021/05/21 00:58:06;;;;;;;1.40;0.30;;;;;;;20.12;36.19;100875.22;144994;642;5002;-78
2021/05/21 01:00:33;;;;;;;1.25;0.20;;;;;;;20.00;36.07;100867.44;144994;575;5002;-78
2021/05/21 01:02:59;;;;;;;0.30;0.20;;;;;;;19.96;35.89;100876.22;144994;569;5002;-78
2021/05/21 01:05:29;;;;;;;2.90;0.20;;;;;;;19.94;36.25;100876.25;144994;639;5002;-77
2021/05/21 01:07:56;;;;;;;3.03;0.43;;;;;;;19.98;35.74;100880.63;144994;585;5002;-77
2021/05/21 01:10:23;;;;;;;1.52;0.30;;;;;;;20.02;36.08;100879.69;144994;645;5002;-78
2021/05/21 01:12:50;;;;;;;1.30;0.40;;;;;;;20.13;36.30;100879.62;144994;658;5002;-77
2021/05/21 01:15:17;;;;;;;1.25;0.30;;;;;;;20.08;35.98;100870.87;144994;582;5002;-78
2021/05/21 01:17:43;;;;;;;0.75;0.40;;;;;;;19.98;36.03;100869.19;144994;613;5002;-77
2021/05/21 01:20:15;;;;;;;0.40;0.30;;;;;;;19.78;36.24;100875.47;144994;571;5002;-78
2021/05/21 01:22:41;;;;;;;0.60;0.30;;;;;;;19.68;36.71;100873.75;144994;642;5002;-78
2021/05/21 01:25:12;;;;;;;0.47;0.40;;;;;;;19.73;36.10;100877.22;144994;608;5002;-78
2021/05/21 01:27:44;;;;;;;0.40;0.30;;;;;;;19.78;36.56;100875.47;144994;572;5002;-77
2021/05/21 01:30:13;;;;;;;1.35;0.30;;;;;;;19.89;36.17;100875.41;144994;607;5002;-79
2021/05/21 01:32:40;;;;;;;1.77;0.30;;;;;;;19.68;36.31;100865.84;144994;627;5002;-79
2021/05/21 01:35:07;;;;;;;0.50;0.30;;;;;;;19.66;36.98;100878.13;144994;635;5002;-77
2021/05/21 01:37:34;;;;;;;1.20;0.40;;;;;;;19.79;36.67;100868.41;144994;563;5002;-77
2021/05/21 01:40:01;;;;;;;0.70;0.30;;;;;;;19.70;36.35;100871.97;144994;625;5002;-77
2021/05/21 01:42:29;;;;;;;1.20;0.32;;;;;;;19.50;36.15;100867.69;144994;565;5002;-78
2021/05/21 01:44:56;;;;;;;1.70;0.37;;;;;;;19.39;36.73;100877.34;144994;627;5002;-78
2021/05/21 01:47:22;;;;;;;1.12;0.30;;;;;;;19.40;36.82;100869.44;144994;572;5002;-78
2021/05/21 01:49:49;;;;;;;1.75;0.50;;;;;;;19.48;37.22;100877.31;144994;564;5002;-78
2021/05/21 01:52:16;;;;;;;3.22;0.30;;;;;;;19.56;36.46;100874.66;144994;582;5002;-78
2021/05/21 01:54:42;;;;;;;2.92;0.70;;;;;;;19.49;37.19;100871.19;144994;564;5002;-78
2021/05/21 01:57:09;;;;;;;0.75;0.50;;;;;;;19.60;37.13;100872.88;144994;577;5002;-77
2021/05/21 01:59:36;;;;;;;2.10;0.43;;;;;;;19.68;36.69;100877.25;144993;571;5002;-78
2021/05/21 02:02:03;;;;;;;1.50;0.37;;;;;;;19.60;36.53;100872.88;144994;582;5002;-77
2021/05/21 02:04:35;;;;;;;4.30;0.50;;;;;;;19.54;37.14;100864.13;144994;608;5002;-77
2021/05/21 02:07:02;;;;;;;1.10;0.30;;;;;;;19.48;37.30;100879.09;144993;579;5002;-77
2021/05/21 02:09:30;;;;;;;2.90;0.32;;;;;;;19.47;37.68;100872.97;144994;656;5002;-77
2021/05/21 02:11:56;;;;;;;1.15;0.25;;;;;;;19.62;36.84;100876.41;144994;669;5003;-77
2021/05/21 02:14:23;;;;;;;2.05;0.20;;;;;;;19.64;37.74;100869.34;144993;598;5002;-77
2021/05/21 02:16:49;;;;;;;1.75;0.20;;;;;;;19.71;36.85;100877.22;144994;601;5002;-77
2021/05/21 02:19:16;;;;;;;0.62;0.20;;;;;;;19.67;37.05;100871.97;144994;651;5002;-78
2021/05/21 02:21:45;;;;;;;0.55;0.30;;;;;;;19.61;37.01;100880.78;144994;585;5002;-77
2021/05/21 02:24:12;;;;;;;1.80;0.20;;;;;;;19.51;37.34;100884.34;144994;700;5002;-78
2021/05/21 02:26:39;;;;;;;1.27;0.30;;;;;;;19.50;37.54;100886.12;144994;621;5002;-78
2021/05/21 02:29:05;;;;;;;0.43;0.20;;;;;;;19.45;37.26;100879.97;144994;579;5002;-78
2021/05/21 02:31:32;;;;;;;1.00;0.20;;;;;;;19.56;37.43;100896.59;144994;590;5002;-78
2021/05/21 02:33:58;;;;;;;2.65;0.30;;;;;;;19.36;37.77;100901.09;144994;674;5002;-77
2021/05/21 02:36:25;;;;;;;1.42;0.20;;;;;;;19.29;38.25;100899.34;144994;660;5002;-78
2021/05/21 02:38:51;;;;;;;2.55;0.35;;;;;;;19.16;37.68;100898.50;144994;671;5002;-79
2021/05/21 02:41:29;;;;;;;1.62;0.20;;;;;;;19.09;38.24;100910.81;144994;604;5002;-79
2021/05/21 02:44:02;;;;;;;2.10;0.30;;;;;;;19.10;37.66;100909.03;144994;569;5002;-79
2021/05/21 02:46:30;;;;;;;1.23;0.40;;;;;;;19.07;38.89;100915.19;144994;634;5002;-76
2021/05/21 02:49:01;;;;;;;2.35;0.47;;;;;;;19.00;39.31;100916.09;144994;574;5002;-78
2021/05/21 02:51:29;;;;;;;4.47;0.50;;;;;;;18.92;39.69;100918.72;144994;615;5002;-78
2021/05/21 02:53:58;;;;;;;4.45;0.70;;;;;;;19.02;39.01;100920.44;144994;586;5002;-77
2021/05/21 02:56:27;;;;;;;1.37;0.20;;;;;;;19.14;38.18;100929.22;144994;598;5002;-77
2021/05/21 02:58:54;;;;;;;2.08;0.40;;;;;;;19.19;38.85;100925.69;144994;685;5002;-78
2021/05/21 03:01:21;;;;;;;2.05;0.30;;;;;;;19.29;38.51;100933.56;144994;597;5002;-77
2021/05/21 03:03:48;;;;;;;1.33;0.20;;;;;;;19.29;38.60;100937.06;144994;581;5002;-77
2021/05/21 03:06:14;;;;;;;2.35;0.30;;;;;;;19.28;38.25;100942.31;144994;598;5002;-77
2021/05/21 03:08:41;;;;;;;3.00;0.30;;;;;;;19.21;38.87;100954.63;144994;749;5002;-78
2021/05/21 03:11:07;;;;;;;2.35;0.60;;;;;;;18.97;39.73;100955.53;144994;626;5002;-78
2021/05/21 03:13:33;;;;;;;2.28;0.40;;;;;;;18.75;40.21;100949.37;144994;643;5002;-76
2021/05/21 03:16:00;;;;;;;2.03;0.40;;;;;;;18.88;38.99;100950.28;144994;573;4567;-77
2021/05/21 03:18:26;;;;;;;2.30;0.40;;;;;;;18.95;39.09;100957.31;144994;733;4573;-77
2021/05/21 03:20:55;;;;;;;0.70;0.30;;;;;;;18.91;39.07;100958.19;144992;717;6002;-78
2021/05/21 03:23:24;;;;;;;3.45;0.60;;;;;;;18.83;39.62;100956.41;144992;698;6002;-77
2021/05/21 03:25:50;;;;;;;2.37;0.50;;;;;;;18.81;40.00;100971.28;144992;569;6002;-77
2021/05/21 03:28:17;;;;;;;4.22;0.30;;;;;;;18.90;39.15;100969.56;144991;605;6002;-77
2021/05/21 03:30:43;;;;;;;3.60;0.70;;;;;;;18.94;39.45;100974.81;144992;569;6002;-77
2021/05/21 03:33:10;;;;;;;3.50;0.22;;;;;;;18.92;38.97;100970.47;144992;607;6002;-78
2021/05/21 03:35:37;;;;;;;3.55;0.47;;;;;;;18.78;39.45;100983.56;144992;710;6002;-76
2021/05/21 03:38:04;;;;;;;2.55;0.30;;;;;;;18.67;39.64;100992.34;144992;610;6002;-78
2021/05/21 03:40:33;;;;;;;3.85;0.30;;;;;;;18.61;40.52;100991.44;144992;575;6002;-78
2021/05/21 03:42:59;;;;;;;2.05;0.40;;;;;;;18.67;39.30;100994.97;144992;738;6002;-77
2021/05/21 03:45:26;;;;;;;1.27;0.25;;;;;;;18.73;39.72;100988.84;144992;570;6002;-77
2021/05/21 03:47:52;;;;;;;2.08;0.20;;;;;;;18.71;40.01;100994.94;144992;597;6002;-78
2021/05/21 03:50:21;;;;;;;0.65;0.30;;;;;;;18.62;40.22;100996.69;144992;576;6002;-77
2021/05/21 03:52:48;;;;;;;1.67;0.28;;;;;;;18.62;40.21;101001.09;144992;589;6002;-77
2021/05/21 03:55:19;;;;;;;0.60;0.30;;;;;;;18.55;40.27;101004.56;144991;649;6002;-78
2021/05/21 03:57:46;;;;;;;2.47;0.45;;;;;;;18.47;40.63;101007.22;144992;600;6002;-77
2021/05/21 04:00:19;;;;;;;1.58;0.40;;;;;;;18.52;40.19;101007.19;144992;714;6002;-77
2021/05/21 04:02:47;;;;;;;1.15;0.25;;;;;;;18.58;40.31;101015.09;144992;714;6002;-76
2021/05/21 04:05:14;;;;;;;0.20;0.20;;;;;;;18.52;40.82;101009.81;144992;634;6002;-78
2021/05/21 04:07:40;;;;;;;1.80;0.30;;;;;;;18.76;39.31;101019.53;144992;583;6002;-79
2021/05/21 04:10:08;;;;;;;6.35;0.82;;;;;;;18.83;40.22;101019.53;144992;691;6002;-78
2021/05/21 04:12:35;;;;;;;8.80;0.90;;;;;;;18.87;39.85;101016.91;144992;565;6002;-76
2021/05/21 04:15:01;;;;;;;8.90;1.05;;;;;;;18.93;39.13;101030.06;144992;594;6002;-77
2021/05/21 04:17:28;;;;;;;4.03;0.50;;;;;;;18.94;39.45;101034.47;144992;685;6002;-77
2021/05/21 04:19:54;;;;;;;3.65;0.60;;;;;;;19.08;38.74;101031.84;144992;606;6002;-78
2021/05/21 04:22:21;;;;;;;6.75;0.85;;;;;;;19.02;39.03;101035.34;144992;620;6002;-77
2021/05/21 04:24:48;;;;;;;5.12;0.50;;;;;;;18.92;39.49;101037.09;144992;652;6002;-76
2021/05/21 04:27:14;;;;;;;1.10;0.40;;;;;;;19.06;39.43;101036.19;144992;587;6002;-78
2021/05/21 04:29:41;;;;;;;1.15;0.30;;;;;;;19.13;39.17;101040.59;144991;695;6002;-76
2021/05/21 04:32:08;;;;;;;1.37;0.43;;;;;;;19.24;39.62;101051.13;144992;681;6002;-78
2021/05/21 04:34:35;;;;;;;4.25;0.85;;;;;;;19.34;39.18;101060.75;144992;565;6002;-76
2021/05/21 04:37:01;;;;;;;2.55;0.50;;;;;;;19.28;40.01;101044.97;144992;581;6002;-77
2021/05/21 04:39:29;;;;;;;2.80;0.77;;;;;;;19.18;39.54;101055.53;144992;599;6002;-75
2021/05/21 04:41:55;;;;;;;2.72;0.45;;;;;;;19.03;39.53;101058.16;144992;591;6002;-76
2021/05/21 04:44:22;;;;;;;1.90;0.32;;;;;;;18.94;40.16;101064.25;144992;588;6002;-79
2021/05/21 04:46:48;;;;;;;2.55;0.50;;;;;;;18.74;39.84;101074.75;144992;628;6002;-80
2021/05/21 04:49:32;;;;;;;1.33;0.45;;;;;;;18.62;40.46;101074.72;144992;577;6002;-77
2021/05/21 04:52:07;;;;;;;3.60;0.50;;;;;;;18.58;39.82;101084.34;144992;607;6002;-78
2021/05/21 04:54:35;;;;;;;6.03;0.62;;;;;;;18.54;40.61;101086.97;144992;566;6002;-80
2021/05/21 04:57:02;;;;;;;1.45;0.30;;;;;;;18.61;40.16;101093.97;144992;565;6002;-78
2021/05/21 04:59:30;;;;;;;1.85;0.40;;;;;;;18.77;39.65;101093.16;144992;585;6002;-80
2021/05/21 05:01:56;;;;;;;0.82;0.40;;;;;;;18.63;39.61;101102.78;144992;655;6002;-75
2021/05/21 05:04:23;;;;;;;2.90;0.35;;;;;;;18.59;39.61;101106.25;144992;579;6002;-77
2021/05/21 05:06:49;;;;;;;0.90;0.30;;;;;;;18.73;40.39;101112.44;144992;606;6002;-77
2021/05/21 05:09:16;;;;;;;1.73;0.55;;;;;;;18.82;39.07;101119.47;144992;587;6002;-78
2021/05/21 05:11:44;;;;;;;5.03;1.95;;;;;;;18.80;39.66;101122.09;144991;808;6002;-78
2021/05/21 05:14:12;;;;;;;4.32;1.80;;;;;;;18.88;39.80;101126.50;144992;590;6002;-78
2021/05/21 05:16:39;;;;;;;3.90;2.05;;;;;;;18.86;40.16;101126.50;144992;581;6002;-78
2021/05/21 05:19:06;;;;;;;3.40;1.10;;;;;;;18.89;39.82;101133.53;144992;591;6002;-78
2021/05/21 05:21:37;;;;;;;2.20;0.57;;;;;;;19.01;39.71;101134.44;144992;585;6002;-78
2021/05/21 05:24:04;;;;;;;1.52;0.70;;;;;;;19.06;39.52;101139.72;144992;600;6002;-77
2021/05/21 05:26:33;;;;;;;3.85;1.12;;;;;;;19.14;39.29;101140.59;144992;584;6002;-78
2021/05/21 05:29:00;;;;;;;1.85;0.50;;;;;;;19.31;39.97;101144.97;144992;600;6002;-77
2021/05/21 05:31:26;;;;;;;0.93;0.50;;;;;;;19.38;38.87;101147.62;144992;603;6002;-77
2021/05/21 05:33:52;;;;;;;8.02;2.00;;;;;;;19.37;38.70;101155.53;144992;594;6002;-77
2021/05/21 05:36:19;;;;;;;1.90;0.68;;;;;;;19.45;38.61;101153.75;144992;563;6002;-77
2021/05/21 05:38:45;;;;;;;2.80;0.70;;;;;;;19.56;39.08;101172.19;144992;571;6002;-78
2021/05/21 05:41:12;;;;;;;2.90;0.68;;;;;;;19.48;38.12;101168.69;144992;569;6002;-76
2021/05/21 05:43:38;;;;;;;1.00;0.50;;;;;;;19.62;38.70;101182.72;144992;578;6002;-79
2021/05/21 05:46:05;;;;;;;2.08;0.50;;;;;;;19.61;38.47;101185.38;144992;586;6002;-77
2021/05/21 05:48:33;;;;;;;2.33;0.65;;;;;;;19.58;38.29;101192.41;144992;578;6002;-78
2021/05/21 05:50:59;;;;;;;4.10;0.40;;;;;;;19.58;38.60;101207.28;144992;579;6002;-77
2021/05/21 05:53:26;;;;;;;3.28;0.50;;;;;;;19.56;38.23;101202.03;144992;566;6002;-77
2021/05/21 05:55:52;;;;;;;2.80;0.60;;;;;;;19.60;38.69;101199.41;144992;583;6002;-78
2021/05/21 05:58:18;;;;;;;2.08;0.30;;;;;;;19.51;38.46;101206.44;144992;581;6002;-77
2021/05/21 06:00:45;;;;;;;0.77;0.50;;;;;;;19.50;38.72;101212.59;144992;582;6002;-78
2021/05/21 06:03:12;;;;;;;1.08;0.60;;;;;;;19.68;38.44;101213.47;144992;572;6002;-78
2021/05/21 06:05:39;;;;;;;0.93;0.43;;;;;;;19.84;38.33;101220.50;144992;585;6002;-77
2021/05/21 06:08:08;;;;;;;4.35;0.50;;;;;;;19.97;38.13;101231.91;144992;569;6002;-79
2021/05/21 06:10:37;;;;;;;1.27;0.30;;;;;;;20.03;37.99;101229.28;144992;572;6002;-78
2021/05/21 06:13:08;;;;;;;1.48;0.40;;;;;;;20.16;38.19;101227.50;144992;571;6002;-77
2021/05/21 06:15:36;;;;;;;3.20;0.73;;;;;;;20.10;37.71;101238.06;144992;591;6002;-78
2021/05/21 06:18:03;;;;;;;4.62;0.85;;;;;;;20.06;38.24;101231.00;144992;564;6002;-80
2021/05/21 06:20:31;;;;;;;1.90;0.40;;;;;;;20.08;38.00;101231.91;144992;573;6002;-77
2021/05/21 06:22:58;;;;;;;2.12;0.30;;;;;;;20.04;38.24;101238.06;144992;576;6002;-76
2021/05/21 06:25:40;;;;;;;0.90;0.40;;;;;;;20.05;38.61;101234.56;144992;578;6002;-78
2021/05/21 06:28:08;;;;;;;0.28;0.20;;;;;;;20.14;38.31;101233.66;144992;578;6002;-78
2021/05/21 06:30:44;;;;;;;3.62;0.70;;;;;;;20.20;37.95;101231.00;144991;587;6002;-77
2021/05/21 06:33:44;;;;;;;1.33;0.40;;;;;;;20.41;37.39;101235.34;144992;572;6002;-78
2021/05/21 06:36:16;;;;;;;1.55;0.50;;;;;;;20.52;37.60;101240.59;144992;640;6002;-79
2021/05/21 06:38:43;;;;;;;2.25;0.60;;;;;;;20.55;37.41;101238.81;144992;666;6002;-79
2021/05/21 06:41:10;;;;;;;2.05;0.60;;;;;;;20.77;37.24;101244.06;144992;564;6002;-78
2021/05/21 06:43:36;;;;;;;3.47;0.60;;;;;;;20.83;36.93;101244.91;144992;581;6002;-77
2021/05/21 06:46:04;;;;;;;3.30;0.70;;;;;;;20.91;36.12;101246.63;144992;625;6002;-78
2021/05/21 06:48:32;;;;;;;6.12;0.50;;;;;;;20.91;35.87;101247.50;144992;574;6002;-78
2021/05/21 06:51:00;;;;;;;1.25;0.75;;;;;;;20.95;36.75;101238.72;144992;648;6002;-77
2021/05/21 06:53:27;;;;;;;6.43;0.90;;;;;;;20.94;36.18;101251.91;144992;662;6002;-79
2021/05/21 06:55:54;;;;;;;5.32;0.77;;;;;;;20.86;36.17;101235.25;144992;586;6002;-80
2021/05/21 06:58:21;;;;;;;6.78;0.70;;;;;;;20.78;35.69;101237.91;144992;660;6002;-77
2021/05/21 07:00:48;;;;;;;4.10;0.70;;;;;;;20.76;35.88;101234.38;144992;565;6002;-77
2021/05/21 07:03:16;;;;;;;3.42;0.60;;;;;;;20.87;35.61;101245.78;144992;641;6002;-78
2021/05/21 07:05:46;;;;;;;2.90;0.70;;;;;;;20.83;35.64;101252.81;144992;587;6002;-80
2021/05/21 07:08:13;;;;;;;8.48;0.60;;;;;;;20.69;35.98;101254.63;144992;604;6002;-79
2021/05/21 07:10:40;;;;;;;2.47;0.40;;;;;;;20.74;36.04;101258.13;144992;589;6002;-78
2021/05/21 07:13:08;;;;;;;7.37;0.80;;;;;;;20.72;35.44;101266.94;144992;598;6002;-79
2021/05/21 07:15:35;;;;;;;3.92;0.50;;;;;;;20.83;36.03;101268.66;144992;600;6002;-78
2021/05/21 07:18:01;;;;;;;1.83;0.55;;;;;;;20.95;36.51;101257.19;144992;621;6002;-78
2021/05/21 07:20:28;;;;;;;4.37;0.82;;;;;;;21.07;36.40;101273.84;144992;578;6002;-79
2021/05/21 07:22:54;;;;;;;3.65;1.50;;;;;;;21.07;35.67;101277.34;144992;597;6002;-80
2021/05/21 07:25:21;;;;;;;3.47;0.50;;;;;;;21.26;35.61;101285.19;144992;565;6002;-78
2021/05/21 07:27:47;;;;;;;2.60;0.60;;;;;;;21.36;36.14;101287.78;144992;576;6002;-78
2021/05/21 07:30:15;;;;;;;2.15;1.10;;;;;;;21.39;35.13;101294.78;144992;569;6002;-78
2021/05/21 07:32:41;;;;;;;4.78;0.90;;;;;;;21.49;35.31;101292.97;144992;645;6002;-78
2021/05/21 07:35:08;;;;;;;5.20;0.55;;;;;;;21.55;34.22;101275.34;144992;614;6002;-77
2021/05/21 07:37:35;;;;;;;5.10;0.68;;;;;;;21.39;34.77;101297.41;144992;620;6002;-77
2021/05/21 07:40:04;;;;;;;5.50;1.95;;;;;;;21.59;35.00;101302.63;144992;706;6002;-79
2021/05/21 07:42:31;;;;;;;11.25;1.40;;;;;;;21.64;34.93;101297.31;144992;645;6002;-81
2021/05/21 07:44:57;;;;;;;4.07;1.80;;;;;;;21.80;34.89;101303.34;144991;594;6002;-79
2021/05/21 07:47:24;;;;;;;5.60;3.60;;;;;;;21.68;35.25;101301.66;144992;565;6002;-79
2021/05/21 07:49:50;;;;;;;3.35;1.10;;;;;;;21.78;34.20;101308.66;144992;673;6002;-79
2021/05/21 07:52:17;;;;;;;3.45;1.73;;;;;;;21.80;34.17;101306.88;144992;630;6002;-78
2021/05/21 07:54:43;;;;;;;2.60;1.40;;;;;;;21.76;34.33;101301.63;144992;604;6002;-79
2021/05/21 07:57:11;;;;;;;9.57;2.58;;;;;;;21.68;35.16;101318.41;144992;600;6002;-79
2021/05/21 07:59:38;;;;;;;8.80;4.25;;;;;;;21.60;35.03;101307.00;144992;725;6002;-78
2021/05/21 08:02:05;;;;;;;3.58;1.48;;;;;;;21.64;34.72;101314.03;144992;603;6002;-77
2021/05/21 08:04:31;;;;;;;5.35;0.90;;;;;;;21.61;35.32;101319.31;144992;564;6002;-78
2021/05/21 08:06:59;;;;;;;3.97;1.70;;;;;;;21.49;34.51;101314.09;144992;565;6002;-78
2021/05/21 08:09:26;;;;;;;6.75;1.30;;;;;;;21.66;34.74;101309.59;144992;656;6002;-79
2021/05/21 08:11:52;;;;;;;2.47;0.75;;;;;;;21.61;34.62;101331.66;144992;597;6002;-79
2021/05/21 08:14:19;;;;;;;8.70;5.53;;;;;;;21.53;34.63;101323.78;144992;587;6002;-79
2021/05/21 08:16:47;;;;;;;6.57;3.90;;;;;;;21.35;35.30;101322.09;144992;564;6002;-79
2021/05/21 08:19:14;;;;;;;3.47;1.90;;;;;;;21.30;34.42;101315.94;144992;656;6002;-78
2021/05/21 08:21:40;;;;;;;2.80;1.12;;;;;;;21.36;34.92;101329.13;144992;565;6002;-78
2021/05/21 08:24:08;;;;;;;4.90;1.80;;;;;;;21.48;34.93;101338.75;144992;794;6003;-78
2021/05/21 08:26:34;;;;;;;2.70;1.30;;;;;;;21.56;34.35;101348.41;144992;616;6002;-79
2021/05/21 08:29:01;;;;;;;2.10;0.85;;;;;;;21.56;34.44;101342.25;144992;646;6002;-79
2021/05/21 08:31:28;;;;;;;6.62;0.80;;;;;;;21.64;34.40;101347.50;144992;587;6002;-80
2021/05/21 08:33:57;;;;;;;2.83;0.90;;;;;;;21.83;34.55;101346.50;144992;564;6002;-79
2021/05/21 08:36:23;;;;;;;6.50;1.50;;;;;;;22.09;34.82;101358.63;144992;599;6002;-79
2021/05/21 08:38:51;;;;;;;2.72;0.70;;;;;;;22.00;33.45;101343.72;144992;613;6002;-79
2021/05/21 08:41:25;;;;;;;2.10;1.27;;;;;;;22.17;33.63;101342.72;144991;726;6002;-80
2021/05/21 08:43:53;;;;;;;2.37;1.42;;;;;;;22.47;33.35;101346.88;144992;648;6002;-79
2021/05/21 08:46:22;;;;;;;1.00;0.70;;;;;;;22.72;33.02;101355.44;144992;583;6002;-78
2021/05/21 08:48:49;;;;;;;2.78;1.30;;;;;;;22.83;31.92;101350.91;144992;590;6011;-80
2021/05/21 08:51:17;;;;;;;3.17;1.20;;;;;;;22.93;32.60;101356.97;144992;579;6002;-80
2021/05/21 08:53:43;;;;;;;4.97;0.80;;;;;;;22.90;31.77;101361.44;144992;637;6002;-77
2021/05/21 08:56:11;;;;;;;5.93;0.82;;;;;;;22.96;32.48;101354.28;144992;591;6002;-77
2021/05/21 08:58:37;;;;;;;2.35;1.00;;;;;;;23.01;33.04;101349.81;144992;581;6002;-78
2021/05/21 09:01:04;;;;;;;3.30;1.30;;;;;;;23.16;31.99;101347.91;144992;646;6002;-79
2021/05/21 09:03:33;;;;;;;2.33;1.10;;;;;;;23.06;32.27;101356.84;144992;586;6002;-79
2021/05/21 09:06:22;;;;;;;2.70;0.80;;;;;;;23.12;32.57;101344.41;144992;563;6002;-79
2021/05/21 09:08:59;;;;;;;1.75;0.90;;;;;;;23.25;32.28;101344.28;144992;579;6002;-78
2021/05/21 09:11:37;;;;;;;1.73;0.80;;;;;;;23.41;31.86;101348.47;144992;590;6002;-79
2021/05/21 09:14:22;;;;;;;3.20;1.20;;;;;;;23.61;31.60;101344.69;144992;578;6002;-80
2021/05/21 09:16:49;;;;;;;3.60;1.02;;;;;;;23.75;31.00;101347.09;144992;587;6002;-78
2021/05/21 09:19:17;;;;;;;1.75;0.60;;;;;;;23.77;30.96;101345.31;144992;570;6002;-78
2021/05/21 09:22:13;;;;;;;2.37;0.80;;;;;;;23.83;31.30;101353.16;144992;657;6002;-79
2021/05/21 09:24:43;;;;;;;1.83;1.20;;;;;;;23.80;31.00;101353.19;144992;569;6004;-79
2021/05/21 09:27:11;;;;;;;2.50;0.62;;;;;;;23.79;31.15;101360.28;144992;577;6004;-79
2021/05/21 09:29:58;;;;;;;2.72;0.50;;;;;;;23.75;30.94;101358.59;144992;582;6004;-80
2021/05/21 09:32:34;;;;;;;2.58;0.60;;;;;;;23.60;31.24;101358.81;144992;567;6002;-79
2021/05/21 09:35:22;;;;;;;2.65;0.80;;;;;;;23.73;31.87;101350.69;144992;571;6002;-77
2021/05/21 09:37:52;;;;;;;3.60;0.90;;;;;;;23.82;31.33;101365.53;144993;571;6000;-80
2021/05/21 09:40:23;;;;;;;1.05;0.60;;;;;;;23.85;31.67;101364.66;144993;596;6002;-79
2021/05/21 09:43:04;;;;;;;6.72;1.02;;;;;;;23.85;31.91;101365.53;144993;625;6002;-79
2021/05/21 09:45:36;;;;;;;2.83;0.60;;;;;;;23.96;30.89;101367.12;144993;591;6002;-79
2021/05/21 09:48:10;;;;;;;2.55;0.82;;;;;;;24.02;31.41;101369.69;144993;593;6002;-80
2021/05/21 09:50:40;;;;;;;2.28;0.52;;;;;;;24.06;31.55;101371.41;144993;629;6002;-81
2021/05/21 09:53:20;;;;;;;3.58;0.73;;;;;;;24.08;31.53;101377.56;144993;577;6002;-80
2021/05/21 09:55:56;;;;;;;2.92;1.00;;;;;;;24.04;31.13;101371.44;144993;576;6002;-80
2021/05/21 09:58:32;;;;;;;2.10;1.00;;;;;;;24.18;31.66;101384.47;144993;582;6002;-80
2021/05/21 10:01:13;;;;;;;3.62;1.20;;;;;;;24.09;31.03;101360.75;144993;573;6002;-81
2021/05/21 10:04:08;;;;;;;2.75;1.00;;;;;;;24.13;31.13;101374.81;144993;566;6002;-80
2021/05/21 10:06:38;;;;;;;2.33;1.20;;;;;;;24.30;31.49;101380.72;144992;587;6004;-80
2021/05/21 10:09:05;;;;;;;3.05;1.20;;;;;;;24.42;31.16;101374.34;144992;600;6000;-79
2021/05/21 10:11:33;;;;;;;3.97;1.25;;;;;;;24.50;31.71;101384.81;144992;647;6000;-79
2021/05/21 10:13:59;;;;;;;3.40;0.75;;;;;;;24.45;30.59;101376.97;144992;579;6000;-79
2021/05/21 10:16:27;;;;;;;2.92;1.02;;;;;;;24.44;30.46;101377.84;144992;594;6000;-78
2021/05/21 10:18:54;;;;;;;3.80;1.40;;;;;;;24.45;30.93;101383.13;144992;605;6000;-79
2021/05/21 10:21:22;;;;;;;1.98;0.80;;;;;;;24.45;30.80;101377.81;144993;652;6000;-79
2021/05/21 10:24:15;;;;;;;6.72;1.17;;;;;;;24.44;30.53;101373.41;144993;598;6002;-78
2021/05/21 10:26:45;;;;;;;4.87;1.90;;;;;;;24.57;30.58;101365.28;144993;572;6000;-80
2021/05/21 10:29:13;;;;;;;2.25;1.58;;;;;;;24.60;30.47;101363.41;144993;563;6002;-79
2021/05/21 10:31:40;;;;;;;4.37;2.28;;;;;;;24.53;30.49;101375.03;144993;586;6002;-79
2021/05/21 10:34:22;;;;;;;7.15;1.12;;;;;;;24.54;30.30;101358.19;144993;587;6002;-78
2021/05/21 10:36:49;;;;;;;1.23;0.93;;;;;;;24.56;30.10;101368.78;144993;599;6002;-81
2021/05/21 10:39:20;;;;;;;3.17;1.02;;;;;;;24.53;30.89;101372.37;144993;586;6002;-79
2021/05/21 10:41:57;;;;;;;4.87;0.80;;;;;;;24.57;30.22;101366.13;144993;592;6002;-79
2021/05/21 10:44:29;;;;;;;1.67;0.80;;;;;;;24.57;29.91;101375.87;144993;569;6002;-79
2021/05/21 10:47:20;;;;;;;2.97;0.52;;;;;;;24.67;30.88;101368.63;144993;565;6002;-77
2021/05/21 10:50:16;;;;;;;2.30;0.60;;;;;;;24.59;30.97;101364.34;144993;587;6000;-79
2021/05/21 10:52:51;;;;;;;1.05;0.60;;;;;;;24.60;30.47;101363.41;144993;591;6000;-78
2021/05/21 10:55:41;;;;;;;0.90;0.50;;;;;;;24.53;30.54;101372.37;144993;573;6002;-81
2021/05/21 10:58:14;;;;;;;5.30;3.08;;;;;;;24.66;30.18;101364.22;144993;593;6004;-79
2021/05/21 11:00:41;;;;;;;3.12;1.73;;;;;;;24.72;30.37;101370.31;144993;573;6002;-80
2021/05/21 11:03:08;;;;;;;2.72;0.85;;;;;;;24.69;30.34;101362.41;144993;564;6002;-79
2021/05/21 11:05:36;;;;;;;1.20;0.65;;;;;;;24.67;30.32;101371.28;144993;614;6002;-78
2021/05/21 11:08:20;;;;;;;3.83;0.80;;;;;;;24.76;30.79;101371.97;144993;623;6002;-78
2021/05/21 11:10:50;;;;;;;0.73;0.50;;;;;;;24.66;30.51;101365.09;144993;644;6004;-79
2021/05/21 11:13:19;;;;;;;1.15;0.60;;;;;;;24.59;30.38;101368.75;144993;665;6002;-79
2021/05/21 11:15:51;;;;;;;1.67;0.80;;;;;;;24.60;30.33;101371.38;144994;564;5002;-78
2021/05/21 11:18:30;;;;;;;1.87;0.80;;;;;;;24.68;30.21;101378.34;144994;585;5002;-80
2021/05/21 11:21:14;;;;;;;1.48;0.80;;;;;;;24.76;30.60;101373.78;144994;641;5002;-78
2021/05/21 11:24:05;;;;;;;2.17;0.80;;;;;;;24.77;30.39;101372.87;144994;580;5002;-80
2021/05/21 11:26:40;;;;;;;2.75;1.00;;;;;;;24.78;30.50;101371.94;144994;605;5004;-80
2021/05/21 11:29:08;;;;;;;2.42;0.95;;;;;;;24.90;30.74;101373.50;144994;576;5004;-78
2021/05/21 11:31:41;;;;;;;3.15;1.30;;;;;;;24.97;30.68;101378.63;144993;619;5004;-78
2021/05/21 11:34:12;;;;;;;3.15;0.98;;;;;;;24.94;30.20;101370.78;144994;610;5002;-79
2021/05/21 11:36:43;;;;;;;2.42;0.70;;;;;;;24.88;30.13;101370.88;144994;598;5002;-85
2021/05/21 11:39:10;;;;;;;1.23;0.70;;;;;;;24.88;29.99;101373.53;144994;590;5002;-76
2021/05/21 11:41:44;;;;;;;1.65;0.70;;;;;;;24.93;30.25;101382.28;144994;564;5002;-82
2021/05/21 11:44:18;;;;;;;2.47;1.08;;;;;;;24.95;30.56;101377.81;144994;623;5002;-83